Time;durP1;ratioP1;P1;durP2;ratioP2;P2;SDS_P1;SDS_P2;PMS_P1;PMS_P2;Temp;Humidity;BMP_temperature;BMP_pressure;BME280_temperature;BME280_humidity;BME280_pressure;Samples;Min_cycle;Max_cycle;Signal;HPM_P1;HPM_P2
2023/06/02 00:00:01;;;;;;;73.80;9.63;;;15.30;5.40;;;;;;4865540;29;20414;-86
2023/06/02 00:02:33;;;;;;;76.93;9.70;;;15.20;4.50;;;;;;4881396;29;20424;-87
2023/06/02 00:04:59;;;;;;;73.37;10.70;;;15.10;3.50;;;;;;4882559;29;20761;-86
2023/06/02 00:07:29;;;;;;;73.13;10.10;;;15.10;2.50;;;;;;4882183;29;20465;-86
2023/06/02 00:09:58;;;;;;;70.43;10.07;;;15.10;1.00;;;;;;4884171;29;20424;-86
2023/06/02 00:12:25;;;;;;;71.87;9.67;;;15.10;1.00;;;;;;4883912;29;20983;-86
2023/06/02 00:14:50;;;;;;;72.50;10.47;;;15.10;1.00;;;;;;4883768;29;20425;-86
2023/06/02 00:18:09;;;;;;;72.80;12.20;;;15.10;1.00;;;;;;4882898;29;20850;-87
2023/06/02 00:20:36;;;;;;;74.80;10.77;;;15.10;1.00;;;;;;4879999;29;20456;-87
2023/06/02 00:23:11;;;;;;;75.40;13.23;;;15.10;1.00;;;;;;4883364;29;20409;-86
2023/06/02 00:25:38;;;;;;;72.37;11.40;;;15.20;1.00;;;;;;4882122;29;20427;-86
2023/06/02 00:28:04;;;;;;;75.77;11.30;;;15.20;1.00;;;;;;4881224;29;20444;-86
2023/06/02 00:30:43;;;;;;;75.47;11.40;;;15.10;1.00;;;;;;4882626;29;20415;-86
2023/06/02 00:33:09;;;;;;;72.87;11.77;;;15.10;1.00;;;;;;4882685;29;20187;-86
2023/06/02 00:35:35;;;;;;;71.70;11.20;;;15.00;1.00;;;;;;4883390;29;20450;-87
2023/06/02 00:38:04;;;;;;;77.80;10.47;;;14.90;1.00;;;;;;4884672;29;20438;-86
2023/06/02 00:40:33;;;;;;;74.20;11.00;;;14.90;1.00;;;;;;4883753;29;20168;-86
2023/06/02 00:43:07;;;;;;;73.53;11.50;;;14.80;1.00;;;;;;4883525;29;20828;-86
2023/06/02 00:45:36;;;;;;;74.03;12.67;;;14.70;1.00;;;;;;4883989;29;20420;-86
2023/06/02 00:48:05;;;;;;;75.17;11.40;;;14.70;1.00;;;;;;4883583;29;20952;-86
2023/06/02 00:50:34;;;;;;;78.97;14.40;;;14.70;1.00;;;;;;4884497;29;20427;-86
2023/06/02 00:53:01;;;;;;;73.70;14.67;;;14.60;1.00;;;;;;4883273;29;20568;-86
2023/06/02 00:55:32;;;;;;;74.20;14.73;;;14.60;1.00;;;;;;4884058;29;20417;-86
2023/06/02 01:00:38;;;;;;;75.17;14.07;;;14.60;1.00;;;;;;5076665;23;20500;-86
2023/06/02 01:03:13;;;;;;;74.60;12.80;;;14.60;1.00;;;;;;4884323;29;20457;-86
2023/06/02 01:05:55;;;;;;;77.40;14.73;;;14.70;1.00;;;;;;4884617;29;20379;-86
2023/06/02 01:08:24;;;;;;;77.70;15.70;;;14.70;1.00;;;;;;4866116;29;20437;-86
2023/06/02 01:10:50;;;;;;;74.30;14.10;;;14.70;1.00;;;;;;4865982;29;20417;-86
2023/06/02 01:13:16;;;;;;;73.37;15.40;;;14.70;1.00;;;;;;4864399;29;20459;-86
2023/06/02 01:15:59;;;;;;;81.40;15.00;;;14.70;1.00;;;;;;4865912;29;20415;-86
2023/06/02 01:18:29;;;;;;;77.67;17.00;;;14.70;1.00;;;;;;4866755;29;20152;-86
2023/06/02 01:21:00;;;;;;;75.60;15.40;;;14.70;1.00;;;;;;4865463;29;20425;-86
2023/06/02 01:23:32;;;;;;;81.07;18.30;;;14.70;1.00;;;;;;4866396;29;20392;-86
2023/06/02 01:25:58;;;;;;;78.80;16.47;;;14.70;1.00;;;;;;4866189;29;20394;-86
2023/06/02 01:28:29;;;;;;;73.10;15.17;;;14.70;1.00;;;;;;4865629;29;20413;-86
2023/06/02 01:31:27;;;;;;;75.30;16.40;;;14.60;1.00;;;;;;4864959;29;20500;-86
2023/06/02 01:34:21;;;;;;;75.20;14.90;;;14.60;1.00;;;;;;4866852;29;20449;-86
2023/06/02 01:36:54;;;;;;;76.37;15.07;;;14.50;1.00;;;;;;4865797;29;20457;-86
2023/06/02 01:39:22;;;;;;;74.47;15.77;;;14.40;1.00;;;;;;4865468;29;20385;-86
2023/06/02 01:41:56;;;;;;;73.20;13.53;;;14.40;1.00;;;;;;4865615;29;20488;-86
2023/06/02 01:44:41;;;;;;;73.50;16.10;;;14.50;1.00;;;;;;4879219;29;20408;-86
2023/06/02 01:47:08;;;;;;;73.23;15.37;;;14.50;1.00;;;;;;4865368;29;20436;-86
2023/06/02 01:49:49;;;;;;;74.20;13.37;;;14.40;1.00;;;;;;4865104;29;20412;-86
2023/06/02 01:52:21;;;;;;;77.37;14.23;;;14.50;1.00;;;;;;4865066;29;20448;-86
2023/06/02 01:54:48;;;;;;;77.37;17.17;;;14.50;1.00;;;;;;4865555;29;20489;-86
2023/06/02 01:57:22;;;;;;;79.53;15.90;;;14.50;1.00;;;;;;4865076;29;20434;-86
2023/06/02 01:59:48;;;;;;;74.67;16.10;;;14.50;1.00;;;;;;4864507;29;20944;-86
2023/06/02 02:02:16;;;;;;;75.00;12.80;;;14.50;1.00;;;;;;4866021;29;20448;-86
2023/06/02 02:05:11;;;;;;;72.77;15.00;;;14.50;1.00;;;;;;4865963;29;20196;-86
2023/06/02 02:08:22;;;;;;;79.53;14.20;;;14.40;1.00;;;;;;4866153;29;20440;-86
2023/06/02 02:10:57;;;;;;;70.80;14.13;;;14.40;1.00;;;;;;4864536;29;20416;-86
2023/06/02 02:13:32;;;;;;;73.77;13.83;;;14.50;1.00;;;;;;4868845;29;20439;-86
2023/06/02 02:16:00;;;;;;;74.90;15.10;;;14.40;1.00;;;;;;4869761;29;20426;-86
2023/06/02 02:18:27;;;;;;;73.77;14.27;;;14.40;1.00;;;;;;4869167;29;20412;-86
2023/06/02 02:21:01;;;;;;;74.80;14.60;;;14.40;1.00;;;;;;4867488;29;20431;-86
2023/06/02 02:23:30;;;;;;;75.47;13.20;;;14.30;1.00;;;;;;4869598;29;20388;-87
2023/06/02 02:25:55;;;;;;;75.20;15.00;;;14.30;1.00;;;;;;4868557;29;20415;-86
2023/06/02 02:28:21;;;;;;;72.80;15.27;;;14.30;1.00;;;;;;4868852;29;20438;-86
2023/06/02 02:30:49;;;;;;;72.97;14.07;;;14.30;1.00;;;;;;4868378;29;20543;-86
2023/06/02 02:33:15;;;;;;;74.63;14.63;;;14.10;1.00;;;;;;4869223;29;20211;-86
2023/06/02 02:35:53;;;;;;;75.90;15.50;;;14.10;1.00;;;;;;4869437;29;20419;-86
2023/06/02 02:38:22;;;;;;;75.40;13.87;;;14.10;1.00;;;;;;4869102;29;20190;-86
2023/06/02 02:40:54;;;;;;;76.33;13.67;;;14.10;1.00;;;;;;4880408;29;20765;-86
2023/06/02 02:43:27;;;;;;;78.20;16.20;;;14.00;1.00;;;;;;4867413;29;20411;-86
2023/06/02 02:46:01;;;;;;;75.90;14.70;;;14.00;1.00;;;;;;4869915;29;20540;-86
2023/06/02 02:48:55;;;;;;;;;;;;;;;;;;;;;
2023/06/02 02:51:21;;;;;;;71.57;13.23;;;14.00;1.00;;;;;;4867632;29;20495;-86
2023/06/02 02:53:54;;;;;;;74.63;15.13;;;14.00;1.00;;;;;;4867967;29;20495;-86
2023/06/02 02:56:27;;;;;;;74.50;14.33;;;14.10;1.00;;;;;;4868994;29;20436;-86
2023/06/02 02:59:13;;;;;;;80.47;15.93;;;14.10;1.00;;;;;;4883024;29;20440;-86
2023/06/02 03:01:43;;;;;;;81.90;15.97;;;14.10;1.00;;;;;;4868756;29;20428;-87
2023/06/02 03:04:18;;;;;;;78.40;14.13;;;14.00;1.00;;;;;;4869347;29;20423;-86
2023/06/02 03:06:55;;;;;;;71.80;14.03;;;13.80;1.00;;;;;;4890232;23;20521;-86
2023/06/02 03:09:27;;;;;;;74.00;15.63;;;13.70;1.00;;;;;;4885952;29;20479;-87
2023/06/02 03:11:58;;;;;;;71.37;13.67;;;13.60;1.00;;;;;;4887723;29;20725;-86
2023/06/02 03:14:28;;;;;;;72.00;13.03;;;13.60;1.00;;;;;;4885233;29;20423;-86
2023/06/02 03:16:56;;;;;;;73.13;14.10;;;13.50;1.00;;;;;;4886858;29;20459;-86
2023/06/02 03:19:24;;;;;;;72.97;14.03;;;13.50;1.00;;;;;;4886165;29;20431;-86
2023/06/02 03:21:51;;;;;;;76.33;13.30;;;13.50;1.00;;;;;;4886582;29;20410;-86
2023/06/02 03:24:18;;;;;;;79.43;15.73;;;13.40;1.00;;;;;;4885394;29;20437;-86
2023/06/02 03:26:45;;;;;;;71.67;14.27;;;13.40;1.00;;;;;;4886549;29;20482;-86
2023/06/02 03:29:12;;;;;;;76.00;12.80;;;13.50;1.00;;;;;;4886479;29;20895;-86
2023/06/02 03:31:45;;;;;;;70.93;12.47;;;13.50;1.00;;;;;;4886717;29;20498;-86
2023/06/02 03:34:13;;;;;;;75.43;12.40;;;13.50;1.00;;;;;;4887975;29;20399;-86
2023/06/02 03:36:39;;;;;;;73.37;15.10;;;13.60;1.00;;;;;;4885558;29;20498;-86
2023/06/02 03:39:07;;;;;;;74.50;15.10;;;13.50;1.00;;;;;;4887509;29;20399;-86
2023/06/02 03:41:34;;;;;;;72.50;14.40;;;13.50;1.00;;;;;;4886870;29;20179;-87
2023/06/02 03:44:00;;;;;;;75.17;14.37;;;13.50;1.00;;;;;;4886872;29;20400;-86
2023/06/02 03:46:26;;;;;;;72.27;11.60;;;13.50;1.00;;;;;;4885553;29;20427;-86
2023/06/02 03:48:52;;;;;;;72.67;13.03;;;13.50;1.00;;;;;;4947226;23;20855;-79
2023/06/02 03:51:18;;;;;;;77.63;14.53;;;13.40;1.00;;;;;;4882838;29;20166;-79
2023/06/02 03:53:43;;;;;;;72.80;13.07;;;13.30;1.00;;;;;;4896775;29;20205;-79
2023/06/02 03:56:10;;;;;;;74.40;15.00;;;13.30;1.00;;;;;;4882126;29;20242;-79
2023/06/02 03:58:36;;;;;;;78.70;14.27;;;13.30;1.00;;;;;;4882500;29;20215;-79
2023/06/02 04:01:02;;;;;;;74.70;16.27;;;13.40;1.00;;;;;;4882023;29;20415;-79
2023/06/02 04:03:29;;;;;;;72.70;13.03;;;13.30;1.00;;;;;;4882595;29;20182;-78
2023/06/02 04:05:54;;;;;;;76.73;13.80;;;13.40;1.00;;;;;;4882118;29;20471;-78
2023/06/02 04:08:20;;;;;;;79.73;14.53;;;13.40;1.00;;;;;;4881999;29;20416;-78
2023/06/02 04:10:46;;;;;;;75.60;14.27;;;13.40;1.00;;;;;;4882605;29;20415;-79
2023/06/02 04:13:12;;;;;;;71.80;13.50;;;13.40;1.00;;;;;;4881618;29;20551;-79
2023/06/02 04:15:37;;;;;;;77.07;15.57;;;13.30;1.00;;;;;;4882090;29;20218;-79
2023/06/02 04:18:04;;;;;;;79.53;18.30;;;13.40;1.00;;;;;;4881978;29;20191;-79
2023/06/02 04:20:30;;;;;;;80.70;16.93;;;13.40;1.00;;;;;;4880319;29;20427;-78
2023/06/02 04:22:56;;;;;;;79.57;18.00;;;13.50;1.00;;;;;;4880563;29;20438;-78
2023/06/02 04:25:22;;;;;;;78.30;15.90;;;13.50;1.00;;;;;;4881921;29;20661;-79
2023/06/02 04:27:48;;;;;;;76.60;16.57;;;13.40;1.00;;;;;;4881710;29;20510;-79
2023/06/02 04:30:14;;;;;;;79.73;16.27;;;13.40;1.00;;;;;;4881724;29;20170;-79
2023/06/02 04:32:40;;;;;;;75.90;16.83;;;13.50;1.00;;;;;;4881586;29;20224;-79
2023/06/02 04:35:06;;;;;;;79.87;16.60;;;13.50;1.00;;;;;;4880884;29;20426;-79
2023/06/02 04:37:32;;;;;;;81.00;18.07;;;13.50;1.00;;;;;;4880177;29;20190;-78
2023/06/02 04:40:04;;;;;;;76.67;15.63;;;13.50;1.00;;;;;;4881627;29;20887;-79
2023/06/02 04:42:32;;;;;;;73.73;16.10;;;13.50;1.00;;;;;;4882222;29;20190;-79
2023/06/02 04:45:00;;;;;;;78.70;15.27;;;13.40;1.00;;;;;;4880095;29;20416;-79
2023/06/02 04:47:27;;;;;;;81.20;15.97;;;13.40;1.00;;;;;;4883092;29;20427;-79
2023/06/02 04:49:53;;;;;;;79.17;16.37;;;13.40;1.00;;;;;;4883829;29;20866;-79
2023/06/02 04:52:19;;;;;;;81.17;18.07;;;13.40;1.00;;;;;;4883863;29;20458;-79
2023/06/02 04:54:45;;;;;;;76.47;17.60;;;13.50;1.00;;;;;;4881851;29;20499;-79
2023/06/02 04:57:11;;;;;;;73.30;16.83;;;13.50;1.00;;;;;;4883208;29;20820;-79
2023/06/02 04:59:36;;;;;;;76.90;15.60;;;13.50;1.00;;;;;;4883294;29;20181;-79
2023/06/02 05:02:02;;;;;;;81.33;16.27;;;13.40;1.00;;;;;;4883275;29;20163;-79
2023/06/02 05:04:28;;;;;;;77.20;16.73;;;13.30;1.00;;;;;;4882240;29;20167;-79
2023/06/02 05:06:53;;;;;;;73.40;14.30;;;13.30;1.00;;;;;;4881691;29;20198;-79
2023/06/02 05:09:19;;;;;;;75.73;15.43;;;13.30;1.00;;;;;;4883405;29;20166;-79
2023/06/02 05:11:45;;;;;;;76.60;16.30;;;13.30;1.00;;;;;;4881524;29;20178;-79
2023/06/02 05:14:11;;;;;;;78.10;15.10;;;13.30;1.00;;;;;;4881260;29;20987;-79
2023/06/02 05:16:36;;;;;;;79.67;15.67;;;13.40;1.00;;;;;;4881328;29;20663;-79
2023/06/02 05:19:05;;;;;;;77.73;13.47;;;13.30;1.00;;;;;;4880860;29;20289;-78
2023/06/02 05:21:31;;;;;;;75.17;13.30;;;13.30;1.00;;;;;;4881436;29;20191;-79
2023/06/02 05:23:58;;;;;;;77.53;13.93;;;13.20;1.00;;;;;;4881160;29;20411;-78
2023/06/02 05:26:24;;;;;;;79.50;14.13;;;13.10;1.00;;;;;;4880889;29;20182;-79
2023/06/02 05:28:50;;;;;;;75.80;12.70;;;13.20;1.00;;;;;;4879789;29;20422;-79
2023/06/02 05:31:16;;;;;;;72.87;14.23;;;13.20;1.00;;;;;;4879708;29;20475;-79
2023/06/02 05:33:42;;;;;;;74.03;14.67;;;13.20;1.00;;;;;;4880550;29;20537;-79
2023/06/02 05:36:08;;;;;;;74.33;14.07;;;13.30;1.00;;;;;;4880891;29;20431;-78
2023/06/02 05:38:33;;;;;;;78.80;12.70;;;13.30;1.00;;;;;;4880952;29;20418;-78
2023/06/02 05:40:59;;;;;;;75.83;12.97;;;13.30;1.00;;;;;;4881212;29;20238;-78
2023/06/02 05:43:25;;;;;;;76.63;12.80;;;13.20;1.00;;;;;;4881099;29;20163;-78
2023/06/02 05:45:50;;;;;;;72.57;10.90;;;13.10;1.00;;;;;;4882393;29;20185;-78
2023/06/02 05:48:16;;;;;;;72.27;11.97;;;13.20;1.00;;;;;;4884746;29;20632;-78
2023/06/02 05:50:45;;;;;;;83.10;13.47;;;13.20;1.00;;;;;;4885999;29;20167;-79
2023/06/02 05:53:10;;;;;;;72.90;12.13;;;13.30;1.00;;;;;;4886090;29;20186;-78
2023/06/02 05:55:37;;;;;;;72.57;11.13;;;13.40;1.00;;;;;;4884962;29;20414;-78
2023/06/02 05:58:02;;;;;;;76.07;12.13;;;13.40;1.00;;;;;;4884580;29;20189;-79
2023/06/02 06:00:28;;;;;;;70.67;10.77;;;13.30;1.00;;;;;;4884417;29;20419;-78
2023/06/02 06:02:54;;;;;;;77.50;11.77;;;13.30;1.00;;;;;;4884189;29;20639;-78
2023/06/02 06:05:19;;;;;;;74.07;9.70;;;13.40;1.00;;;;;;4883474;29;20186;-78
2023/06/02 06:07:45;;;;;;;75.70;11.00;;;13.50;1.00;;;;;;4884108;29;20210;-78
2023/06/02 06:10:11;;;;;;;77.63;12.67;;;13.50;1.00;;;;;;4884345;29;20177;-79
2023/06/02 06:12:36;;;;;;;77.03;11.03;;;13.50;1.00;;;;;;4884398;29;20194;-78
2023/06/02 06:15:02;;;;;;;75.43;12.40;;;13.60;1.00;;;;;;4884775;29;20223;-78
2023/06/02 06:17:28;;;;;;;83.70;11.70;;;13.60;1.00;;;;;;4884118;29;20189;-78
2023/06/02 06:19:53;;;;;;;78.87;10.40;;;13.60;1.00;;;;;;4884046;29;20162;-78
2023/06/02 06:22:19;;;;;;;76.30;10.30;;;13.60;1.00;;;;;;4883949;29;20175;-78
2023/06/02 06:24:45;;;;;;;74.20;12.00;;;13.60;1.00;;;;;;4898627;29;20202;-79
2023/06/02 06:27:11;;;;;;;78.27;10.57;;;13.60;1.00;;;;;;4884259;29;20191;-79
2023/06/02 06:29:37;;;;;;;79.80;10.87;;;13.70;1.00;;;;;;4883881;29;20174;-78
2023/06/02 06:32:05;;;;;;;76.13;10.30;;;13.70;1.00;;;;;;4882952;29;20407;-78
2023/06/02 06:34:31;;;;;;;74.57;10.17;;;13.80;1.00;;;;;;4882878;29;20170;-78
2023/06/02 06:36:57;;;;;;;75.87;9.73;;;13.90;1.00;;;;;;4883920;29;20446;-78
2023/06/02 06:39:23;;;;;;;74.83;8.87;;;14.00;1.00;;;;;;4883993;29;20245;-79
2023/06/02 06:41:48;;;;;;;73.73;8.60;;;14.10;1.00;;;;;;4882482;29;20171;-77
2023/06/02 06:44:14;;;;;;;79.43;9.73;;;14.00;1.00;;;;;;4883647;29;20403;-78
2023/06/02 06:46:40;;;;;;;74.40;9.23;;;14.20;1.00;;;;;;4883785;29;20345;-78
2023/06/02 06:49:06;;;;;;;72.80;8.30;;;14.20;1.00;;;;;;4883558;29;20439;-79
2023/06/02 06:51:31;;;;;;;75.07;8.67;;;14.30;1.00;;;;;;4884992;29;20656;-79
2023/06/02 06:54:00;;;;;;;73.37;8.17;;;14.40;1.00;;;;;;4883882;29;20214;-79
2023/06/02 06:56:26;;;;;;;90.00;10.93;;;14.50;1.00;;;;;;4883278;29;20197;-78
2023/06/02 06:58:52;;;;;;;74.10;9.03;;;14.50;1.00;;;;;;4883544;29;20494;-78
2023/06/02 07:01:17;;;;;;;77.97;8.50;;;14.60;1.00;;;;;;4883446;29;20167;-78
2023/06/02 07:03:43;;;;;;;73.50;7.43;;;14.70;1.00;;;;;;4883479;29;20404;-79
2023/06/02 07:06:09;;;;;;;73.40;7.87;;;14.70;1.00;;;;;;4882842;29;20262;-78
2023/06/02 07:08:40;;;;;;;82.90;11.20;;;14.70;1.00;;;;;;4882065;29;20176;-78
2023/06/02 07:11:06;;;;;;;80.63;8.87;;;14.80;1.00;;;;;;4885141;29;20234;-79
2023/06/02 07:13:32;;;;;;;75.10;7.80;;;14.90;1.00;;;;;;4884740;29;20455;-79
2023/06/02 07:15:57;;;;;;;74.73;8.87;;;14.80;1.00;;;;;;4884790;29;20171;-79
2023/06/02 07:18:23;;;;;;;74.93;8.07;;;14.90;1.00;;;;;;4883721;29;20176;-79
2023/06/02 07:20:49;;;;;;;75.30;9.30;;;15.00;1.00;;;;;;4886454;29;20669;-79
2023/06/02 07:23:15;;;;;;;81.07;10.10;;;14.90;1.00;;;;;;4887166;29;20175;-79
2023/06/02 07:25:42;;;;;;;83.90;9.40;;;14.90;1.00;;;;;;4887220;29;20202;-80
2023/06/02 07:28:08;;;;;;;78.30;10.27;;;15.10;1.00;;;;;;4889405;29;20459;-79
2023/06/02 07:30:35;;;;;;;79.73;9.07;;;15.20;1.00;;;;;;4886981;29;20402;-79
2023/06/02 07:33:00;;;;;;;77.90;9.87;;;15.20;1.00;;;;;;4884123;29;20204;-79
2023/06/02 07:35:26;;;;;;;80.13;8.57;;;15.20;1.00;;;;;;4884780;29;20437;-79
2023/06/02 07:37:52;;;;;;;74.87;8.70;;;15.20;1.00;;;;;;4885213;29;20192;-79
2023/06/02 07:40:19;;;;;;;75.40;8.70;;;15.30;1.00;;;;;;4885628;29;20175;-79
2023/06/02 07:42:45;;;;;;;74.57;7.80;;;15.60;1.00;;;;;;4884745;29;20490;-79
2023/06/02 07:45:10;;;;;;;79.50;9.20;;;15.60;1.00;;;;;;4885339;29;20787;-79
2023/06/02 07:47:36;;;;;;;80.03;8.80;;;15.60;1.00;;;;;;4884545;29;20517;-79
2023/06/02 07:50:02;;;;;;;79.63;8.20;;;15.70;1.00;;;;;;4884541;29;20193;-79
2023/06/02 07:52:28;;;;;;;77.33;8.40;;;15.80;1.00;;;;;;4883721;29;20201;-78
2023/06/02 07:54:54;;;;;;;79.10;7.90;;;15.70;1.00;;;;;;4884038;29;20178;-78
2023/06/02 07:57:19;;;;;;;74.03;8.43;;;15.80;1.00;;;;;;4884194;29;20923;-79
2023/06/02 07:59:45;;;;;;;79.00;8.40;;;15.80;1.00;;;;;;4884585;29;20155;-78
2023/06/02 08:02:10;;;;;;;76.27;7.90;;;15.60;1.00;;;;;;4884802;29;20180;-79
2023/06/02 08:04:36;;;;;;;73.37;7.70;;;15.40;1.00;;;;;;4884901;29;20204;-79
2023/06/02 08:07:03;;;;;;;72.70;7.77;;;15.50;1.00;;;;;;4883488;29;20193;-79
2023/06/02 08:09:29;;;;;;;71.50;7.27;;;15.60;1.00;;;;;;4881689;29;20175;-79
2023/06/02 08:11:55;;;;;;;74.43;7.10;;;15.70;1.00;;;;;;4883976;29;20413;-79
2023/06/02 08:14:21;;;;;;;77.37;7.63;;;15.70;1.00;;;;;;4883105;29;20430;-79
2023/06/02 08:16:46;;;;;;;74.93;7.97;;;15.70;1.00;;;;;;4882945;29;20587;-79
2023/06/02 08:19:13;;;;;;;76.77;7.43;;;15.60;1.00;;;;;;4880691;29;20185;-79
2023/06/02 08:21:41;;;;;;;78.97;8.07;;;15.70;1.00;;;;;;4882991;29;20209;-79
2023/06/02 08:24:06;;;;;;;74.83;8.20;;;15.60;1.00;;;;;;4881249;29;20453;-79
2023/06/02 08:26:32;;;;;;;77.43;9.37;;;15.20;1.00;;;;;;4882558;29;20433;-79
2023/06/02 08:28:59;;;;;;;79.43;10.10;;;15.20;1.00;;;;;;4882427;29;20169;-79
2023/06/02 08:31:25;;;;;;;79.90;9.90;;;15.10;1.00;;;;;;4880827;29;20316;-79
2023/06/02 08:33:54;;;;;;;73.20;8.70;;;15.20;1.00;;;;;;4880274;29;20540;-79
2023/06/02 08:36:20;;;;;;;78.20;7.23;;;15.20;1.00;;;;;;4881782;29;20442;-79
2023/06/02 08:38:47;;;;;;;75.97;8.10;;;15.40;1.00;;;;;;4882110;29;20426;-79
2023/06/02 08:41:13;;;;;;;74.90;9.50;;;15.60;1.00;;;;;;4881765;29;20912;-79
2023/06/02 08:43:40;;;;;;;75.50;7.87;;;15.70;1.00;;;;;;4882140;29;20424;-78
2023/06/02 08:46:11;;;;;;;74.10;7.57;;;15.80;1.00;;;;;;4880526;29;20421;-78
2023/06/02 08:48:39;;;;;;;77.83;7.07;;;15.90;1.00;;;;;;4881833;29;20527;-79
2023/06/02 08:51:10;;;;;;;77.37;9.17;;;15.80;1.00;;;;;;4882024;29;20410;-79
2023/06/02 08:53:37;;;;;;;75.30;8.30;;;15.70;1.00;;;;;;4882161;29;20814;-78
2023/06/02 08:56:04;;;;;;;75.17;7.60;;;15.90;1.00;;;;;;4880738;29;20443;-79
2023/06/02 08:58:30;;;;;;;77.70;7.27;;;15.90;1.00;;;;;;4880539;29;20426;-78
2023/06/02 09:00:56;;;;;;;78.60;7.60;;;16.00;1.00;;;;;;4881355;29;20414;-78
2023/06/02 09:03:22;;;;;;;81.93;7.70;;;15.90;1.00;;;;;;4881816;29;20421;-79
2023/06/02 09:05:47;;;;;;;73.97;7.30;;;15.90;1.00;;;;;;4881534;29;20523;-79
2023/06/02 09:08:14;;;;;;;79.43;8.90;;;16.00;1.00;;;;;;4880365;29;20194;-78
2023/06/02 09:10:41;;;;;;;72.90;7.20;;;16.10;1.00;;;;;;4880082;29;20208;-79
2023/06/02 09:13:27;;;;;;;74.73;6.67;;;16.10;1.00;;;;;;4880091;29;20495;-78
2023/06/02 09:16:03;;;;;;;76.80;7.20;;;16.30;1.00;;;;;;4881513;29;20389;-78
2023/06/02 09:18:29;;;;;;;78.77;8.90;;;16.40;1.00;;;;;;4881002;29;20414;-78
2023/06/02 09:20:58;;;;;;;74.80;8.03;;;16.20;1.00;;;;;;4880961;29;20410;-78
2023/06/02 09:23:43;;;;;;;75.97;7.97;;;16.30;1.00;;;;;;4881194;29;20418;-79
2023/06/02 09:26:22;;;;;;;76.23;8.50;;;16.50;1.00;;;;;;4881127;29;21290;-78
2023/06/02 09:29:18;;;;;;;73.83;8.43;;;16.70;1.00;;;;;;4880879;29;20411;-78
2023/06/02 09:31:45;;;;;;;78.73;7.20;;;16.50;1.00;;;;;;4881290;29;20899;-78
2023/06/02 09:34:12;;;;;;;77.57;7.57;;;16.60;1.00;;;;;;4881001;29;20458;-78
2023/06/02 09:36:38;;;;;;;79.23;6.63;;;16.50;1.00;;;;;;4879411;29;20435;-78
2023/06/02 09:39:05;;;;;;;74.73;7.90;;;16.70;1.00;;;;;;4881079;29;20417;-78
2023/06/02 09:41:32;;;;;;;73.87;7.30;;;16.70;1.00;;;;;;4879785;29;20792;-78
2023/06/02 09:43:58;;;;;;;75.67;7.80;;;17.00;1.00;;;;;;4880589;29;20828;-78
2023/06/02 09:46:23;;;;;;;75.93;7.53;;;17.10;1.00;;;;;;4880988;29;20487;-79
2023/06/02 09:49:00;;;;;;;79.10;7.60;;;17.10;1.00;;;;;;4958200;23;20851;-85
2023/06/02 09:51:29;;;;;;;73.33;8.23;;;17.00;1.00;;;;;;4894644;29;20222;-86
2023/06/02 09:53:58;;;;;;;80.13;8.60;;;17.00;1.00;;;;;;4891656;29;20455;-86
2023/06/02 09:56:29;;;;;;;77.93;8.50;;;17.00;1.00;;;;;;4892808;29;20428;-86
2023/06/02 09:58:55;;;;;;;73.00;6.80;;;17.10;1.00;;;;;;4887566;29;20450;-85
2023/06/02 10:01:24;;;;;;;78.10;7.40;;;17.20;1.00;;;;;;4888534;29;20411;-85
2023/06/02 10:03:52;;;;;;;80.40;8.50;;;17.50;1.00;;;;;;4891129;29;20174;-85
2023/06/02 10:06:30;;;;;;;78.57;8.30;;;17.40;1.00;;;;;;4891828;29;20431;-85
2023/06/02 10:09:14;;;;;;;74.37;8.10;;;17.30;1.00;;;;;;4894730;29;20411;-85
2023/06/02 10:12:21;;;;;;;81.67;8.00;;;17.50;1.00;;;;;;4892369;29;20395;-85
2023/06/02 10:15:27;;;;;;;;;;;;;;;;;;;;;
2023/06/02 10:18:22;;;;;;;75.30;7.83;;;18.30;1.00;;;;;;4892125;29;20490;-86
2023/06/02 10:21:03;;;;;;;76.77;7.57;;;18.40;1.00;;;;;;4891830;29;20466;-84
2023/06/02 10:23:50;;;;;;;82.37;8.17;;;18.50;1.00;;;;;;4890079;29;20407;-85
2023/06/02 10:26:39;;;;;;;76.27;7.77;;;18.80;1.00;;;;;;4890930;29;20422;-85
2023/06/02 10:29:05;;;;;;;74.70;7.10;;;18.90;1.00;;;;;;4890962;29;20394;-85
2023/06/02 10:31:43;;;;;;;78.47;6.83;;;19.00;1.00;;;;;;4892050;29;20400;-85
2023/06/02 10:34:41;;;;;;;81.93;8.87;;;19.40;1.00;;;;;;4894554;29;20510;-85
2023/06/02 10:37:06;;;;;;;74.30;7.33;;;19.40;1.00;;;;;;4890960;29;20948;-85
2023/06/02 10:39:54;;;;;;;73.63;6.47;;;19.60;1.00;;;;;;4893326;29;20414;-85
2023/06/02 10:42:27;;;;;;;75.00;7.40;;;19.70;1.00;;;;;;4893302;29;20168;-85
2023/06/02 10:45:41;;;;;;;79.70;6.70;;;19.70;1.00;;;;;;4894216;29;20770;-84
2023/06/02 10:48:43;;;;;;;74.07;8.00;;;20.00;1.00;;;;;;4885100;29;20429;-85
2023/06/02 10:51:15;;;;;;;78.60;7.83;;;20.10;1.00;;;;;;4887962;29;20423;-85
2023/06/02 10:54:02;;;;;;;75.70;7.97;;;19.40;1.00;;;;;;4886697;29;20452;-85
2023/06/02 10:56:44;;;;;;;76.20;7.70;;;19.40;1.00;;;;;;4885950;29;20951;-85
2023/06/02 10:59:31;;;;;;;76.07;7.80;;;19.50;1.00;;;;;;4888444;29;20749;-83
2023/06/02 11:02:02;;;;;;;76.67;8.07;;;19.40;1.00;;;;;;4891226;29;20426;-84
2023/06/02 11:04:33;;;;;;;72.50;8.00;;;20.00;1.00;;;;;;4889243;29;20422;-84
2023/06/02 11:07:26;;;;;;;81.80;8.10;;;20.10;1.00;;;;;;4892551;29;20424;-84
2023/06/02 11:09:58;;;;;;;78.60;7.40;;;19.90;1.00;;;;;;4893921;29;20393;-84
2023/06/02 11:12:49;;;;;;;75.10;8.23;;;20.00;1.00;;;;;;4894704;29;20446;-84
2023/06/02 11:15:15;;;;;;;86.20;9.33;;;20.10;1.00;;;;;;4887726;29;20507;-84
2023/06/02 11:17:42;;;;;;;76.70;7.30;;;20.10;1.00;;;;;;4893045;29;20490;-84
2023/06/02 11:20:08;;;;;;;79.40;7.73;;;20.20;1.00;;;;;;4891987;29;20472;-84
2023/06/02 11:22:36;;;;;;;86.97;8.03;;;19.80;1.00;;;;;;4895348;29;20440;-84
2023/06/02 11:25:02;;;;;;;82.70;7.93;;;20.10;1.00;;;;;;4894977;29;20412;-84
2023/06/02 11:27:41;;;;;;;77.00;8.60;;;20.10;1.00;;;;;;4894517;29;20463;-84
2023/06/02 11:30:09;;;;;;;79.67;8.40;;;20.20;1.00;;;;;;4888703;29;20419;-83
2023/06/02 11:32:36;;;;;;;79.33;8.70;;;20.20;1.00;;;;;;4890246;29;20464;-84
2023/06/02 11:35:07;;;;;;;77.73;7.60;;;20.10;1.00;;;;;;4896778;29;20408;-84
2023/06/02 11:37:40;;;;;;;79.67;9.13;;;20.00;1.00;;;;;;4896018;29;20426;-84
2023/06/02 11:40:07;;;;;;;79.63;7.87;;;20.10;1.00;;;;;;4897811;29;20388;-83
2023/06/02 11:42:41;;;;;;;78.63;8.90;;;20.60;1.00;;;;;;4893555;29;20422;-84
2023/06/02 11:45:24;;;;;;;79.47;7.40;;;20.60;1.00;;;;;;4895045;29;20420;-84
2023/06/02 11:47:57;;;;;;;82.80;9.70;;;20.60;1.00;;;;;;4895255;29;20454;-84
2023/06/02 11:50:23;;;;;;;79.07;8.27;;;20.80;1.00;;;;;;4895742;29;20431;-84
2023/06/02 11:52:48;;;;;;;77.27;8.40;;;20.80;1.00;;;;;;4896433;29;20489;-84
2023/06/02 11:55:15;;;;;;;78.73;7.93;;;20.80;1.00;;;;;;4895045;29;20404;-84
2023/06/02 11:57:43;;;;;;;76.80;7.53;;;20.30;1.00;;;;;;4893782;29;20187;-84
2023/06/02 12:00:12;;;;;;;76.63;7.67;;;20.60;1.00;;;;;;4894808;29;20477;-84
2023/06/02 12:02:43;;;;;;;76.90;9.97;;;20.90;1.00;;;;;;4894950;29;20498;-84
2023/06/02 12:05:32;;;;;;;83.17;9.77;;;21.20;1.00;;;;;;4894964;29;20415;-84
2023/06/02 12:08:11;;;;;;;77.13;9.30;;;21.10;1.00;;;;;;4896243;29;20469;-84
2023/06/02 12:10:38;;;;;;;74.83;9.03;;;21.20;1.00;;;;;;4895946;29;20431;-84
2023/06/02 12:13:04;;;;;;;75.93;10.30;;;21.40;1.00;;;;;;4894049;29;20462;-84
2023/06/02 12:15:35;;;;;;;76.30;9.20;;;21.30;1.00;;;;;;4892445;29;20451;-84
2023/06/02 12:18:05;;;;;;;78.53;11.50;;;21.10;1.00;;;;;;4891107;29;20202;-84
2023/06/02 12:20:37;;;;;;;78.67;10.97;;;21.20;1.00;;;;;;4895160;29;20380;-84
2023/06/02 12:23:11;;;;;;;79.43;12.37;;;21.00;1.00;;;;;;4891815;29;20411;-84
2023/06/02 12:25:37;;;;;;;75.17;11.03;;;21.20;1.00;;;;;;4893777;29;20395;-84
2023/06/02 12:28:21;;;;;;;82.13;12.70;;;21.40;1.00;;;;;;4896749;29;20439;-84
2023/06/02 12:30:50;;;;;;;79.20;11.50;;;21.70;1.00;;;;;;4896777;29;20395;-84
2023/06/02 12:33:19;;;;;;;84.30;21.60;;;21.70;1.00;;;;;;4892806;29;20458;-85
2023/06/02 12:35:45;;;;;;;78.80;15.00;;;21.80;1.00;;;;;;4886798;29;20416;-85
2023/06/02 12:38:10;;;;;;;79.67;15.47;;;21.70;1.00;;;;;;4891662;29;20487;-85
2023/06/02 12:40:38;;;;;;;75.60;13.90;;;21.90;1.00;;;;;;4886755;29;20269;-85
2023/06/02 12:43:04;;;;;;;77.40;16.10;;;21.90;1.00;;;;;;4883591;29;20213;-85
2023/06/02 12:45:30;;;;;;;81.13;16.50;;;21.90;1.00;;;;;;4883461;29;20415;-85
2023/06/02 12:47:57;;;;;;;80.97;16.07;;;22.10;1.00;;;;;;4883919;29;20535;-85
2023/06/02 12:50:23;;;;;;;77.20;18.10;;;21.80;1.00;;;;;;4886524;29;20526;-85
2023/06/02 12:52:51;;;;;;;82.10;15.57;;;21.80;1.00;;;;;;4890563;29;20484;-84
2023/06/02 12:55:17;;;;;;;76.90;15.20;;;22.00;1.00;;;;;;4891693;29;20404;-84
2023/06/02 12:57:46;;;;;;;76.17;13.70;;;22.20;1.00;;;;;;4893443;29;20475;-84
2023/06/02 13:00:12;;;;;;;76.37;15.60;;;22.20;1.00;;;;;;4889189;29;20424;-85